sensor_id;sensor_type;location;lat;lon;timestamp;pressure;altitude;pressure_sealevel;temperature;humidity
51359;BME280;37448;51.588;7.248;2023-08-07T00:00:26;100381.59;;;12.30;100.00
51359;BME280;37448;51.588;7.248;2023-08-07T00:02:26;100379.06;;;12.27;100.00
51359;BME280;37448;51.588;7.248;2023-08-07T00:04:27;100380.63;;;12.32;100.00
51359;BME280;37448;51.588;7.248;2023-08-07T00:06:28;100385.06;;;12.30;100.00
51359;BME280;37448;51.588;7.248;2023-08-07T00:08:29;100384.25;;;12.28;100.00
51359;BME280;37448;51.588;7.248;2023-08-07T00:10:31;100385.97;;;12.29;100.00
51359;BME280;37448;51.588;7.248;2023-08-07T00:12:31;100389.38;;;12.31;100.00
51359;BME280;37448;51.588;7.248;2023-08-07T00:14:32;100385.09;;;12.29;100.00
51359;BME280;37448;51.588;7.248;2023-08-07T00:16:32;100381.63;;;12.28;100.00
51359;BME280;37448;51.588;7.248;2023-08-07T00:18:33;100382.47;;;12.29;100.00
51359;BME280;37448;51.588;7.248;2023-08-07T00:20:33;100384.97;;;12.33;100.00
51359;BME280;37448;51.588;7.248;2023-08-07T00:22:34;100383.31;;;12.31;100.00
51359;BME280;37448;51.588;7.248;2023-08-07T00:24:34;100389.28;;;12.34;100.00
51359;BME280;37448;51.588;7.248;2023-08-07T00:26:35;100382.44;;;12.30;100.00
51359;BME280;37448;51.588;7.248;2023-08-07T00:28:35;100389.28;;;12.34;100.00
51359;BME280;37448;51.588;7.248;2023-08-07T00:30:36;100385.97;;;12.29;100.00
51359;BME280;37448;51.588;7.248;2023-08-07T00:32:36;100392.81;;;12.33;100.00
51359;BME280;37448;51.588;7.248;2023-08-07T00:34:37;100398.03;;;12.33;100.00
51359;BME280;37448;51.588;7.248;2023-08-07T00:36:37;100397.13;;;12.34;100.00
51359;BME280;37448;51.588;7.248;2023-08-07T00:38:38;100388.63;;;12.28;100.00
51359;BME280;37448;51.588;7.248;2023-08-07T00:40:39;100390.44;;;12.26;100.00
51359;BME280;37448;51.588;7.248;2023-08-07T00:42:40;100399.09;;;12.28;100.00
51359;BME280;37448;51.588;7.248;2023-08-07T00:44:40;100403.50;;;12.27;100.00
51359;BME280;37448;51.588;7.248;2023-08-07T00:46:41;100402.59;;;12.28;100.00
51359;BME280;37448;51.588;7.248;2023-08-07T00:48:42;100403.53;;;12.26;100.00
51359;BME280;37448;51.588;7.248;2023-08-07T00:50:44;100405.19;;;12.28;100.00
51359;BME280;37448;51.588;7.248;2023-08-07T00:52:46;100398.25;;;12.27;100.00
51359;BME280;37448;51.588;7.248;2023-08-07T00:54:46;100423.56;;;12.27;100.00
51359;BME280;37448;51.588;7.248;2023-08-07T00:56:47;100411.38;;;12.26;100.00
51359;BME280;37448;51.588;7.248;2023-08-07T00:58:48;100407.13;;;12.23;100.00
51359;BME280;37448;51.588;7.248;2023-08-07T01:00:50;100409.63;;;12.26;100.00
51359;BME280;37448;51.588;7.248;2023-08-07T01:02:50;100408.03;;;12.22;100.00
51359;BME280;37448;51.588;7.248;2023-08-07T01:04:52;100419.31;;;12.24;100.00
51359;BME280;37448;51.588;7.248;2023-08-07T01:06:53;100418.50;;;12.22;100.00
51359;BME280;37448;51.588;7.248;2023-08-07T01:08:53;100420.09;;;12.26;100.00
51359;BME280;37448;51.588;7.248;2023-08-07T01:13:27;100418.44;;;12.24;100.00
51359;BME280;37448;51.588;7.248;2023-08-07T01:15:30;100426.34;;;12.22;100.00
51359;BME280;37448;51.588;7.248;2023-08-07T01:17:32;100422.84;;;12.22;100.00
51359;BME280;37448;51.588;7.248;2023-08-07T01:19:35;100423.00;;;12.17;100.00
51359;BME280;37448;51.588;7.248;2023-08-07T01:21:36;100426.44;;;12.19;100.00
51359;BME280;37448;51.588;7.248;2023-08-07T01:23:37;100428.19;;;12.18;100.00
51359;BME280;37448;51.588;7.248;2023-08-07T01:25:38;100426.44;;;12.19;100.00
51359;BME280;37448;51.588;7.248;2023-08-07T01:28:17;100433.47;;;12.17;100.00
51359;BME280;37448;51.588;7.248;2023-08-07T01:33:09;100423.09;;;12.14;100.00
51359;BME280;37448;51.588;7.248;2023-08-07T01:35:12;100431.97;;;12.10;100.00
51359;BME280;37448;51.588;7.248;2023-08-07T01:37:15;100422.34;;;12.10;100.00
51359;BME280;37448;51.588;7.248;2023-08-07T01:39:17;100425.00;;;12.09;100.00
51359;BME280;37448;51.588;7.248;2023-08-07T01:41:18;100424.00;;;12.13;100.00
51359;BME280;37448;51.588;7.248;2023-08-07T01:43:19;100428.53;;;12.08;100.00
51359;BME280;37448;51.588;7.248;2023-08-07T01:45:26;100424.19;;;12.06;100.00
51359;BME280;37448;51.588;7.248;2023-08-07T01:47:28;100424.09;;;12.10;100.00
51359;BME280;37448;51.588;7.248;2023-08-07T01:49:28;100429.25;;;12.13;100.00
51359;BME280;37448;51.588;7.248;2023-08-07T01:51:29;100431.84;;;12.13;100.00
51359;BME280;37448;51.588;7.248;2023-08-07T01:53:29;100431.84;;;12.13;100.00
51359;BME280;37448;51.588;7.248;2023-08-07T01:55:29;100438.91;;;12.11;100.00
51359;BME280;37448;51.588;7.248;2023-08-07T01:57:30;100439.00;;;12.08;100.00
51359;BME280;37448;51.588;7.248;2023-08-07T01:59:31;100438.16;;;12.07;100.00
51359;BME280;37448;51.588;7.248;2023-08-07T02:01:32;100434.66;;;12.06;100.00
51359;BME280;37448;51.588;7.248;2023-08-07T02:03:32;100435.56;;;12.05;100.00
51359;BME280;37448;51.588;7.248;2023-08-07T02:05:33;100439.00;;;12.08;100.00
51359;BME280;37448;51.588;7.248;2023-08-07T02:07:35;100440.00;;;12.03;100.00
51359;BME280;37448;51.588;7.248;2023-08-07T02:09:36;100438.31;;;12.01;100.00
51359;BME280;37448;51.588;7.248;2023-08-07T02:11:37;100435.56;;;12.05;100.00
51359;BME280;37448;51.588;7.248;2023-08-07T02:13:37;100439.94;;;12.05;100.00
51359;BME280;37448;51.588;7.248;2023-08-07T02:15:38;100441.69;;;12.06;100.00
51359;BME280;37448;51.588;7.248;2023-08-07T02:17:38;100438.22;;;12.04;100.00
51359;BME280;37448;51.588;7.248;2023-08-07T02:19:41;100440.91;;;12.02;100.00
51359;BME280;37448;51.588;7.248;2023-08-07T02:21:41;100446.94;;;12.04;100.00
51359;BME280;37448;51.588;7.248;2023-08-07T02:23:41;100440.94;;;12.01;100.00
51359;BME280;37448;51.588;7.248;2023-08-07T02:25:42;100439.19;;;12.01;100.00
51359;BME280;37448;51.588;7.248;2023-08-07T02:27:42;100456.69;;;11.99;100.00
51359;BME280;37448;51.588;7.248;2023-08-07T02:29:43;100453.09;;;12.03;100.00
51359;BME280;37448;51.588;7.248;2023-08-07T02:31:44;100448.66;;;12.05;100.00
51359;BME280;37448;51.588;7.248;2023-08-07T02:33:44;100443.41;;;12.07;100.00
51359;BME280;37448;51.588;7.248;2023-08-07T02:35:45;100450.41;;;12.05;100.00
51359;BME280;37448;51.588;7.248;2023-08-07T02:37:45;100447.84;;;12.03;100.00
51359;BME280;37448;51.588;7.248;2023-08-07T02:39:46;100447.94;;;12.00;100.00
51359;BME280;37448;51.588;7.248;2023-08-07T02:41:46;100453.09;;;12.03;100.00
51359;BME280;37448;51.588;7.248;2023-08-07T02:43:47;100446.16;;;12.02;100.00
51359;BME280;37448;51.588;7.248;2023-08-07T02:45:47;100453.16;;;12.00;100.00
51359;BME280;37448;51.588;7.248;2023-08-07T02:47:47;100446.16;;;12.02;100.00
51359;BME280;37448;51.588;7.248;2023-08-07T02:49:48;100453.16;;;12.00;100.00
51359;BME280;37448;51.588;7.248;2023-08-07T02:51:48;100454.81;;;12.04;100.00
51359;BME280;37448;51.588;7.248;2023-08-07T02:53:49;100446.97;;;12.03;100.00
51359;BME280;37448;51.588;7.248;2023-08-07T02:55:49;100437.41;;;12.02;100.00
51359;BME280;37448;51.588;7.248;2023-08-07T02:57:50;100446.22;;;11.99;100.00
51359;BME280;37448;51.588;7.248;2023-08-07T02:59:50;100451.44;;;11.99;100.00
51359;BME280;37448;51.588;7.248;2023-08-07T03:01:51;100452.28;;;12.01;100.00
51359;BME280;37448;51.588;7.248;2023-08-07T03:03:51;100453.16;;;12.00;100.00
51359;BME280;37448;51.588;7.248;2023-08-07T03:05:52;100456.66;;;12.01;100.00
51359;BME280;37448;51.588;7.248;2023-08-07T03:07:52;100456.69;;;11.99;100.00
51359;BME280;37448;51.588;7.248;2023-08-07T03:09:52;100455.00;;;11.97;100.00
51359;BME280;37448;51.588;7.248;2023-08-07T03:11:53;100453.25;;;11.97;100.00
51359;BME280;37448;51.588;7.248;2023-08-07T03:13:53;100461.03;;;11.99;100.00
51359;BME280;37448;51.588;7.248;2023-08-07T03:16:03;100454.06;;;11.99;100.00
51359;BME280;37448;51.588;7.248;2023-08-07T03:18:04;100450.53;;;12.00;100.00
51359;BME280;37448;51.588;7.248;2023-08-07T03:20:05;100455.06;;;11.95;100.00
51359;BME280;37448;51.588;7.248;2023-08-07T03:22:06;100463.72;;;11.97;100.00
51359;BME280;37448;51.588;7.248;2023-08-07T03:24:06;100460.19;;;11.98;100.00
51359;BME280;37448;51.588;7.248;2023-08-07T03:26:09;100458.59;;;11.94;100.00
51359;BME280;37448;51.588;7.248;2023-08-07T03:28:11;100457.63;;;11.97;100.00
51359;BME280;37448;51.588;7.248;2023-08-07T03:30:12;100458.59;;;11.94;100.00
51359;BME280;37448;51.588;7.248;2023-08-07T03:32:12;100468.22;;;11.92;100.00
51359;BME280;37448;51.588;7.248;2023-08-07T03:34:13;100456.84;;;11.93;100.00
51359;BME280;37448;51.588;7.248;2023-08-07T03:36:13;100454.28;;;11.91;100.00
51359;BME280;37448;51.588;7.248;2023-08-07T03:38:15;100460.38;;;11.92;100.00
51359;BME280;37448;51.588;7.248;2023-08-07T03:40:16;100457.00;;;11.88;100.00
51359;BME280;37448;51.588;7.248;2023-08-07T03:42:16;100468.31;;;11.89;100.00
51359;BME280;37448;51.588;7.248;2023-08-07T03:44:19;100463.88;;;11.91;100.00
51359;BME280;37448;51.588;7.248;2023-08-07T03:46:19;100464.88;;;11.87;100.00
51359;BME280;37448;51.588;7.248;2023-08-07T03:48:20;100470.94;;;11.89;100.00
51359;BME280;37448;51.588;7.248;2023-08-07T03:50:20;100482.28;;;11.88;100.00
51359;BME280;37448;51.588;7.248;2023-08-07T03:52:21;100479.69;;;11.88;100.00
51359;BME280;37448;51.588;7.248;2023-08-07T03:54:21;100474.44;;;11.88;100.00
51359;BME280;37448;51.588;7.248;2023-08-07T03:56:23;100469.22;;;11.88;100.00
51359;BME280;37448;51.588;7.248;2023-08-07T03:58:23;100470.94;;;11.89;100.00
51359;BME280;37448;51.588;7.248;2023-08-07T04:00:23;100473.50;;;11.90;100.00
51359;BME280;37448;51.588;7.248;2023-08-07T04:02:24;100470.03;;;11.90;100.00
51359;BME280;37448;51.588;7.248;2023-08-07T04:04:25;100465.59;;;11.92;100.00
51359;BME280;37448;51.588;7.248;2023-08-07T04:06:26;100472.63;;;11.90;100.00
51359;BME280;37448;51.588;7.248;2023-08-07T04:08:27;100472.63;;;11.90;100.00
51359;BME280;37448;51.588;7.248;2023-08-07T04:10:27;100474.41;;;11.89;100.00
51359;BME280;37448;51.588;7.248;2023-08-07T04:12:28;100474.31;;;11.92;100.00
51359;BME280;37448;51.588;7.248;2023-08-07T04:14:28;100470.88;;;11.90;100.00
51359;BME280;37448;51.588;7.248;2023-08-07T04:16:30;100471.72;;;11.91;100.00
51359;BME280;37448;51.588;7.248;2023-08-07T04:18:32;100481.38;;;11.89;100.00
51359;BME280;37448;51.588;7.248;2023-08-07T04:20:32;100476.16;;;11.89;100.00
51359;BME280;37448;51.588;7.248;2023-08-07T04:22:33;100466.56;;;11.89;100.00
51359;BME280;37448;51.588;7.248;2023-08-07T04:24:33;100477.97;;;11.87;100.00
51359;BME280;37448;51.588;7.248;2023-08-07T04:26:33;100479.69;;;11.88;100.00
51359;BME280;37448;51.588;7.248;2023-08-07T04:28:34;100476.16;;;11.89;100.00
51359;BME280;37448;51.588;7.248;2023-08-07T04:30:35;100490.16;;;11.88;100.00
51359;BME280;37448;51.588;7.248;2023-08-07T04:32:35;100479.75;;;11.86;100.00
51359;BME280;37448;51.588;7.248;2023-08-07T04:34:36;100474.59;;;11.83;100.00
51359;BME280;37448;51.588;7.248;2023-08-07T04:36:36;100475.44;;;11.84;100.00
51359;BME280;37448;51.588;7.248;2023-08-07T04:38:36;100479.88;;;11.82;100.00
51359;BME280;37448;51.588;7.248;2023-08-07T04:40:37;100477.97;;;11.87;100.00
51359;BME280;37448;51.588;7.248;2023-08-07T04:42:38;100475.34;;;11.87;100.00
51359;BME280;37448;51.588;7.248;2023-08-07T04:44:38;100478.88;;;11.86;100.00
51359;BME280;37448;51.588;7.248;2023-08-07T04:46:38;100484.91;;;11.88;100.00
51359;BME280;37448;51.588;7.248;2023-08-07T04:48:39;100484.91;;;11.88;100.00
51359;BME280;37448;51.588;7.248;2023-08-07T04:50:39;100485.00;;;11.85;100.00
51359;BME280;37448;51.588;7.248;2023-08-07T04:52:40;100482.34;;;11.86;100.00
51359;BME280;37448;51.588;7.248;2023-08-07T04:54:40;100489.25;;;11.89;100.00
51359;BME280;37448;51.588;7.248;2023-08-07T04:56:40;100485.91;;;11.84;100.00
51359;BME280;37448;51.588;7.248;2023-08-07T04:58:44;100479.78;;;11.85;100.00
51359;BME280;37448;51.588;7.248;2023-08-07T05:00:44;100486.72;;;11.86;100.00
51359;BME280;37448;51.588;7.248;2023-08-07T05:02:45;100487.63;;;11.85;100.00
51359;BME280;37448;51.588;7.248;2023-08-07T05:04:45;100485.81;;;11.87;100.00
51359;BME280;37448;51.588;7.248;2023-08-07T05:06:45;100486.72;;;11.86;100.00
51359;BME280;37448;51.588;7.248;2023-08-07T05:08:46;100486.81;;;11.83;100.00
51359;BME280;37448;51.588;7.248;2023-08-07T05:10:46;100488.53;;;11.84;100.00
51359;BME280;37448;51.588;7.248;2023-08-07T05:12:47;100482.44;;;11.83;100.00
51359;BME280;37448;51.588;7.248;2023-08-07T05:14:47;100490.31;;;11.82;100.00
51359;BME280;37448;51.588;7.248;2023-08-07T05:16:47;100483.38;;;11.81;100.00
51359;BME280;37448;51.588;7.248;2023-08-07T05:18:48;100486.03;;;11.79;100.00
51359;BME280;37448;51.588;7.248;2023-08-07T05:20:48;100483.28;;;11.84;100.00
51359;BME280;37448;51.588;7.248;2023-08-07T05:22:49;100488.50;;;11.85;100.00
51359;BME280;37448;51.588;7.248;2023-08-07T05:24:49;100485.09;;;11.82;100.00
51359;BME280;37448;51.588;7.248;2023-08-07T05:26:50;100493.03;;;11.78;100.00
51359;BME280;37448;51.588;7.248;2023-08-07T05:28:51;100492.25;;;11.75;100.00
51359;BME280;37448;51.588;7.248;2023-08-07T05:30:51;100498.19;;;11.82;100.00
51359;BME280;37448;51.588;7.248;2023-08-07T05:32:51;100502.69;;;11.76;100.00
51359;BME280;37448;51.588;7.248;2023-08-07T05:34:52;100503.53;;;11.77;100.00
51359;BME280;37448;51.588;7.248;2023-08-07T05:36:52;100498.31;;;11.77;100.00
51359;BME280;37448;51.588;7.248;2023-08-07T05:38:53;100506.13;;;11.78;100.00
51359;BME280;37448;51.588;7.248;2023-08-07T05:40:53;100500.00;;;11.78;100.00
51359;BME280;37448;51.588;7.248;2023-08-07T05:42:54;100507.94;;;11.76;100.00
51359;BME280;37448;51.588;7.248;2023-08-07T05:44:54;100513.16;;;11.76;100.00
51359;BME280;37448;51.588;7.248;2023-08-07T05:46:54;100518.38;;;11.76;100.00
51359;BME280;37448;51.588;7.248;2023-08-07T05:48:55;100497.56;;;11.73;100.00
51359;BME280;37448;51.588;7.248;2023-08-07T05:50:55;100504.50;;;11.74;100.00
51359;BME280;37448;51.588;7.248;2023-08-07T05:52:55;100510.53;;;11.76;100.00
51359;BME280;37448;51.588;7.248;2023-08-07T05:54:56;100522.84;;;11.73;100.00
51359;BME280;37448;51.588;7.248;2023-08-07T05:56:56;100510.66;;;11.72;100.00
51359;BME280;37448;51.588;7.248;2023-08-07T05:58:57;100511.53;;;11.72;100.00
51359;BME280;37448;51.588;7.248;2023-08-07T06:00:57;100513.16;;;11.76;100.00
51359;BME280;37448;51.588;7.248;2023-08-07T06:02:57;100524.44;;;11.78;100.00
51359;BME280;37448;51.588;7.248;2023-08-07T06:04:58;100513.16;;;11.76;100.00
51359;BME280;37448;51.588;7.248;2023-08-07T06:06:58;100517.44;;;11.79;100.00
51359;BME280;37448;51.588;7.248;2023-08-07T06:08:59;100528.84;;;11.76;100.00
51359;BME280;37448;51.588;7.248;2023-08-07T06:10:59;100520.09;;;11.77;100.00
51359;BME280;37448;51.588;7.248;2023-08-07T06:13:03;100516.63;;;11.77;100.00
51359;BME280;37448;51.588;7.248;2023-08-07T06:15:05;100521.72;;;11.82;100.00
51359;BME280;37448;51.588;7.248;2023-08-07T06:17:06;100538.28;;;11.82;100.00
51359;BME280;37448;51.588;7.248;2023-08-07T06:19:06;100526.97;;;11.82;100.00
51359;BME280;37448;51.588;7.248;2023-08-07T06:21:06;100530.47;;;11.81;100.00
51359;BME280;37448;51.588;7.248;2023-08-07T06:23:07;100534.63;;;11.88;100.00
51359;BME280;37448;51.588;7.248;2023-08-07T06:25:08;100538.13;;;11.87;100.00
51359;BME280;37448;51.588;7.248;2023-08-07T06:27:08;100533.72;;;11.89;100.00
51359;BME280;37448;51.588;7.248;2023-08-07T06:29:09;100528.56;;;11.86;100.00
51359;BME280;37448;51.588;7.248;2023-08-07T06:31:10;100545.09;;;11.88;100.00
51359;BME280;37448;51.588;7.248;2023-08-07T06:33:11;100549.41;;;11.89;100.00
51359;BME280;37448;51.588;7.248;2023-08-07T06:35:11;100551.13;;;11.90;100.00
51359;BME280;37448;51.588;7.248;2023-08-07T06:37:12;100548.44;;;11.93;100.00
51359;BME280;37448;51.588;7.248;2023-08-07T06:39:12;100557.06;;;11.97;100.00
51359;BME280;37448;51.588;7.248;2023-08-07T06:41:12;100565.78;;;11.97;100.00
51359;BME280;37448;51.588;7.248;2023-08-07T06:43:13;100569.25;;;11.98;100.00
51359;BME280;37448;51.588;7.248;2023-08-07T06:45:13;100563.00;;;12.03;100.00
51359;BME280;37448;51.588;7.248;2023-08-07T06:47:13;100559.53;;;12.03;100.00
51359;BME280;37448;51.588;7.248;2023-08-07T06:49:14;100568.06;;;12.10;100.00
51359;BME280;37448;51.588;7.248;2023-08-07T06:51:14;100563.69;;;12.10;100.00
51359;BME280;37448;51.588;7.248;2023-08-07T06:53:17;100573.13;;;12.16;100.00
51359;BME280;37448;51.588;7.248;2023-08-07T06:55:17;100573.06;;;12.17;100.00
51359;BME280;37448;51.588;7.248;2023-08-07T06:57:19;100564.28;;;12.20;100.00
51359;BME280;37448;51.588;7.248;2023-08-07T06:59:19;100579.03;;;12.23;100.00
51359;BME280;37448;51.588;7.248;2023-08-07T07:01:19;100572.88;;;12.25;100.00
51359;BME280;37448;51.588;7.248;2023-08-07T07:03:20;100584.19;;;12.26;100.00
51359;BME280;37448;51.588;7.248;2023-08-07T07:05:20;100582.34;;;12.29;100.00
51359;BME280;37448;51.588;7.248;2023-08-07T07:07:20;100583.16;;;12.31;100.00
51359;BME280;37448;51.588;7.248;2023-08-07T07:09:21;100580.50;;;12.33;100.00
51359;BME280;37448;51.588;7.248;2023-08-07T07:11:22;100580.50;;;12.33;100.00
51359;BME280;37448;51.588;7.248;2023-08-07T07:13:24;100589.91;;;12.39;100.00
51359;BME280;37448;51.588;7.248;2023-08-07T07:15:25;100591.78;;;12.35;100.00
51359;BME280;37448;51.588;7.248;2023-08-07T07:17:25;100591.69;;;12.38;100.00
51359;BME280;37448;51.588;7.248;2023-08-07T07:19:26;100590.81;;;12.38;100.00
51359;BME280;37448;51.588;7.248;2023-08-07T07:21:26;100597.81;;;12.37;100.00
51359;BME280;37448;51.588;7.248;2023-08-07T07:23:27;100601.38;;;12.34;100.00
51359;BME280;37448;51.588;7.248;2023-08-07T07:25:27;100592.72;;;12.32;100.00
51359;BME280;37448;51.588;7.248;2023-08-07T07:27:27;100598.81;;;12.33;100.00
51359;BME280;37448;51.588;7.248;2023-08-07T07:29:28;100608.34;;;12.35;100.00
51359;BME280;37448;51.588;7.248;2023-08-07T07:31:29;100612.66;;;12.37;100.00
51359;BME280;37448;51.588;7.248;2023-08-07T07:33:30;100617.19;;;12.31;100.00
51359;BME280;37448;51.588;7.248;2023-08-07T07:35:31;100617.09;;;12.34;100.00
51359;BME280;37448;51.588;7.248;2023-08-07T07:37:31;100621.31;;;12.39;100.00
51359;BME280;37448;51.588;7.248;2023-08-07T07:39:32;100620.44;;;12.40;100.00
51359;BME280;37448;51.588;7.248;2023-08-07T07:41:34;100634.47;;;12.37;100.00
51359;BME280;37448;51.588;7.248;2023-08-07T07:43:34;100629.28;;;12.35;100.00
51359;BME280;37448;51.588;7.248;2023-08-07T07:45:35;100629.09;;;12.42;100.00
51359;BME280;37448;51.588;7.248;2023-08-07T07:47:35;100635.28;;;12.39;100.00
51359;BME280;37448;51.588;7.248;2023-08-07T07:49:36;100628.38;;;12.37;100.00
51359;BME280;37448;51.588;7.248;2023-08-07T07:51:37;100634.47;;;12.37;100.00
51359;BME280;37448;51.588;7.248;2023-08-07T07:53:37;100643.06;;;12.42;100.00
51359;BME280;37448;51.588;7.248;2023-08-07T07:55:38;100649.16;;;12.43;100.00
51359;BME280;37448;51.588;7.248;2023-08-07T07:57:38;100643.75;;;12.49;100.00
51359;BME280;37448;51.588;7.248;2023-08-07T07:59:38;100641.94;;;12.51;100.00
51359;BME280;37448;51.588;7.248;2023-08-07T08:01:39;100648.09;;;12.48;100.00
51359;BME280;37448;51.588;7.248;2023-08-07T08:03:40;100653.13;;;12.56;100.00
51359;BME280;37448;51.588;7.248;2023-08-07T08:05:40;100653.03;;;12.59;100.00
51359;BME280;37448;51.588;7.248;2023-08-07T08:07:41;100661.91;;;12.54;100.00
51359;BME280;37448;51.588;7.248;2023-08-07T08:09:42;100666.22;;;12.56;100.00
51359;BME280;37448;51.588;7.248;2023-08-07T08:11:42;100657.28;;;12.63;100.00
51359;BME280;37448;51.588;7.248;2023-08-07T08:13:43;100664.88;;;12.73;100.00
51359;BME280;37448;51.588;7.248;2023-08-07T08:15:44;100671.72;;;12.77;100.00
51359;BME280;37448;51.588;7.248;2023-08-07T08:17:45;100677.78;;;12.79;100.00
51359;BME280;37448;51.588;7.248;2023-08-07T08:19:45;100688.25;;;12.79;100.00
51359;BME280;37448;51.588;7.248;2023-08-07T08:21:45;100680.41;;;12.79;100.00
51359;BME280;37448;51.588;7.248;2023-08-07T08:23:46;100684.75;;;12.80;100.00
51359;BME280;37448;51.588;7.248;2023-08-07T08:25:47;100695.31;;;12.77;100.00
51359;BME280;37448;51.588;7.248;2023-08-07T08:27:48;100695.41;;;12.74;100.00
51359;BME280;37448;51.588;7.248;2023-08-07T08:29:50;100699.78;;;12.73;100.00
51359;BME280;37448;51.588;7.248;2023-08-07T08:31:50;100700.66;;;12.74;100.00
51359;BME280;37448;51.588;7.248;2023-08-07T08:33:53;100705.09;;;12.72;100.00
51359;BME280;37448;51.588;7.248;2023-08-07T08:35:53;100710.22;;;12.75;100.00
51359;BME280;37448;51.588;7.248;2023-08-07T08:37:54;100711.13;;;12.74;100.00
51359;BME280;37448;51.588;7.248;2023-08-07T08:39:54;100718.00;;;12.78;100.00
51359;BME280;37448;51.588;7.248;2023-08-07T08:41:54;100718.03;;;12.76;100.00
51359;BME280;37448;51.588;7.248;2023-08-07T08:43:55;100702.47;;;12.72;100.00
51359;BME280;37448;51.588;7.248;2023-08-07T08:45:56;100719.13;;;12.69;100.00
51359;BME280;37448;51.588;7.248;2023-08-07T08:48:01;100720.09;;;12.67;100.00
51359;BME280;37448;51.588;7.248;2023-08-07T08:50:04;100723.50;;;12.69;100.00
51359;BME280;37448;51.588;7.248;2023-08-07T08:52:06;100719.94;;;12.71;100.00
51359;BME280;37448;51.588;7.248;2023-08-07T08:54:07;100728.56;;;12.75;100.00
51359;BME280;37448;51.588;7.248;2023-08-07T08:56:08;100731.09;;;12.78;100.00
51359;BME280;37448;51.588;7.248;2023-08-07T08:58:08;100734.50;;;12.82;100.00
51359;BME280;37448;51.588;7.248;2023-08-07T09:00:09;100733.38;;;12.90;100.00
51359;BME280;37448;51.588;7.248;2023-08-07T09:02:22;100743.28;;;13.09;100.00
51359;BME280;37448;51.588;7.248;2023-08-07T09:04:22;100737.69;;;13.21;100.00
51359;BME280;37448;51.588;7.248;2023-08-07T09:06:23;100743.00;;;13.18;100.00
51359;BME280;37448;51.588;7.248;2023-08-07T09:08:25;100742.72;;;13.28;100.00
51359;BME280;37448;51.588;7.248;2023-08-07T09:10:27;100741.44;;;13.41;100.00
51359;BME280;37448;51.588;7.248;2023-08-07T09:12:29;100751.69;;;13.49;100.00
51359;BME280;37448;51.588;7.248;2023-08-07T09:14:33;100746.28;;;13.55;100.00
51359;BME280;37448;51.588;7.248;2023-08-07T09:16:35;100746.09;;;13.60;100.00
51359;BME280;37448;51.588;7.248;2023-08-07T09:18:36;100746.41;;;13.77;100.00
51359;BME280;37448;51.588;7.248;2023-08-07T09:20:37;100750.53;;;13.85;100.00
51359;BME280;37448;51.588;7.248;2023-08-07T09:22:41;100744.09;;;13.95;100.00
51359;BME280;37448;51.588;7.248;2023-08-07T09:24:42;100752.78;;;14.23;100.00
51359;BME280;37448;51.588;7.248;2023-08-07T09:26:42;100753.69;;;14.47;100.00
51359;BME280;37448;51.588;7.248;2023-08-07T09:28:44;100756.84;;;14.57;100.00
51359;BME280;37448;51.588;7.248;2023-08-07T09:30:44;100754.19;;;14.82;100.00
51359;BME280;37448;51.588;7.248;2023-08-07T09:32:47;100751.53;;;14.82;100.00
51359;BME280;37448;51.588;7.248;2023-08-07T09:34:48;100760.59;;;14.75;100.00
51359;BME280;37448;51.588;7.248;2023-08-07T09:36:49;100758.28;;;14.66;100.00
51359;BME280;37448;51.588;7.248;2023-08-07T09:38:49;100773.06;;;14.68;100.00
51359;BME280;37448;51.588;7.248;2023-08-07T09:40:50;100771.47;;;14.64;100.00
51359;BME280;37448;51.588;7.248;2023-08-07T09:42:52;100773.13;;;14.67;100.00
51359;BME280;37448;51.588;7.248;2023-08-07T09:44:52;100765.97;;;14.72;100.00
51359;BME280;37448;51.588;7.248;2023-08-07T09:46:53;100766.00;;;14.94;100.00
51359;BME280;37448;51.588;7.248;2023-08-07T09:48:57;100774.75;;;15.18;100.00
51359;BME280;37448;51.588;7.248;2023-08-07T09:51:01;100773.66;;;15.24;100.00
51359;BME280;37448;51.588;7.248;2023-08-07T09:53:03;100770.34;;;15.41;100.00
51359;BME280;37448;51.588;7.248;2023-08-07T09:55:03;100770.59;;;15.57;100.00
51359;BME280;37448;51.588;7.248;2023-08-07T09:57:05;100768.50;;;15.65;100.00
51359;BME280;37448;51.588;7.248;2023-08-07T09:59:07;100778.66;;;15.53;97.58
51359;BME280;37448;51.588;7.248;2023-08-07T10:01:08;100769.59;;;15.38;96.14
51359;BME280;37448;51.588;7.248;2023-08-07T10:03:10;100780.75;;;15.22;96.77
51359;BME280;37448;51.588;7.248;2023-08-07T10:05:11;100795.75;;;14.96;92.85
51359;BME280;37448;51.588;7.248;2023-08-07T10:07:13;100797.16;;;14.81;97.79
51359;BME280;37448;51.588;7.248;2023-08-07T10:09:15;100802.19;;;14.62;98.75
51359;BME280;37448;51.588;7.248;2023-08-07T10:11:16;100805.53;;;14.42;97.25
51359;BME280;37448;51.588;7.248;2023-08-07T10:13:17;100802.00;;;14.43;99.23
51359;BME280;37448;51.588;7.248;2023-08-07T10:15:19;100802.63;;;14.24;96.89
51359;BME280;37448;51.588;7.248;2023-08-07T10:17:21;100799.53;;;14.38;97.41
51359;BME280;37448;51.588;7.248;2023-08-07T10:19:22;100805.47;;;14.69;97.58
51359;BME280;37448;51.588;7.248;2023-08-07T10:21:24;100806.59;;;14.87;97.60
51359;BME280;37448;51.588;7.248;2023-08-07T10:23:24;100799.34;;;15.17;97.11
51359;BME280;37448;51.588;7.248;2023-08-07T10:25:26;100797.16;;;15.51;100.00
51359;BME280;37448;51.588;7.248;2023-08-07T10:27:33;100804.34;;;15.70;97.75
51359;BME280;37448;51.588;7.248;2023-08-07T10:29:34;100807.91;;;16.12;98.33